sensor_id;sensor_type;location;lat;lon;timestamp;pressure;altitude;pressure_sealevel;temperature;humidity
7407;BME280;3745;56.964;24.128;2024-01-06T00:01:48;100768.28;;;-10.34;100.00
7407;BME280;3745;56.964;24.128;2024-01-06T00:04:16;100780.03;;;-10.48;100.00
7407;BME280;3745;56.964;24.128;2024-01-06T00:06:41;100774.56;;;-10.54;100.00
7407;BME280;3745;56.964;24.128;2024-01-06T00:09:07;100788.66;;;-10.60;100.00
7407;BME280;3745;56.964;24.128;2024-01-06T00:11:34;100775.97;;;-10.73;100.00
7407;BME280;3745;56.964;24.128;2024-01-06T00:14:00;100750.66;;;-10.99;100.00
7407;BME280;3745;56.964;24.128;2024-01-06T00:16:26;100708.66;;;-11.21;100.00
7407;BME280;3745;56.964;24.128;2024-01-06T00:18:53;100691.06;;;-11.42;100.00
7407;BME280;3745;56.964;24.128;2024-01-06T00:21:21;100793.94;;;-10.89;100.00
7407;BME280;3745;56.964;24.128;2024-01-06T00:23:47;100754.34;;;-11.11;100.00
7407;BME280;3745;56.964;24.128;2024-01-06T00:26:12;100809.91;;;-10.76;100.00
7407;BME280;3745;56.964;24.128;2024-01-06T00:28:40;100521.75;;;-12.44;100.00
7407;BME280;3745;56.964;24.128;2024-01-06T00:31:06;100821.69;;;-10.80;100.00
7407;BME280;3745;56.964;24.128;2024-01-06T00:33:33;100793.47;;;-10.94;100.00
7407;BME280;3745;56.964;24.128;2024-01-06T00:35:59;100829.44;;;-10.76;100.00
7407;BME280;3745;56.964;24.128;2024-01-06T00:38:26;100836.31;;;-10.89;100.00
7407;BME280;3745;56.964;24.128;2024-01-06T00:40:53;100828.53;;;-10.93;100.00
7407;BME280;3745;56.964;24.128;2024-01-06T00:43:19;100817.00;;;-11.03;100.00
7407;BME280;3745;56.964;24.128;2024-01-06T00:45:45;100811.31;;;-11.19;100.00
7407;BME280;3745;56.964;24.128;2024-01-06T00:48:11;100829.63;;;-11.07;100.00
7407;BME280;3745;56.964;24.128;2024-01-06T00:50:36;100840.63;;;-10.95;100.00
7407;BME280;3745;56.964;24.128;2024-01-06T00:53:02;100759.72;;;-11.39;100.00
7407;BME280;3745;56.964;24.128;2024-01-06T00:55:27;100864.19;;;-10.87;100.00
7407;BME280;3745;56.964;24.128;2024-01-06T00:57:54;100642.56;;;-12.22;100.00
7407;BME280;3745;56.964;24.128;2024-01-06T01:00:20;100863.31;;;-10.96;100.00
7407;BME280;3745;56.964;24.128;2024-01-06T01:02:45;100860.75;;;-10.89;100.00
7407;BME280;3745;56.964;24.128;2024-01-06T01:05:11;100873.06;;;-10.96;100.00
7407;BME280;3745;56.964;24.128;2024-01-06T01:07:37;100698.31;;;-12.01;100.00
7407;BME280;3745;56.964;24.128;2024-01-06T01:10:02;100808.53;;;-11.39;100.00
7407;BME280;3745;56.964;24.128;2024-01-06T01:12:28;100838.78;;;-11.13;100.00
7407;BME280;3745;56.964;24.128;2024-01-06T01:14:54;100878.28;;;-10.84;100.00
7407;BME280;3745;56.964;24.128;2024-01-06T01:17:21;100880.81;;;-11.00;100.00
7407;BME280;3745;56.964;24.128;2024-01-06T01:19:46;100864.34;;;-11.18;100.00
7407;BME280;3745;56.964;24.128;2024-01-06T01:22:12;100904.34;;;-11.01;100.00
7407;BME280;3745;56.964;24.128;2024-01-06T01:24:38;100867.47;;;-11.19;100.00
7407;BME280;3745;56.964;24.128;2024-01-06T01:27:04;100843.03;;;-11.28;100.00
7407;BME280;3745;56.964;24.128;2024-01-06T01:29:30;100796.41;;;-11.46;100.00
7407;BME280;3745;56.964;24.128;2024-01-06T01:31:55;100775.09;;;-11.65;100.00
7407;BME280;3745;56.964;24.128;2024-01-06T01:34:21;100912.44;;;-10.93;100.00
7407;BME280;3745;56.964;24.128;2024-01-06T01:36:47;100913.34;;;-10.84;100.00
7407;BME280;3745;56.964;24.128;2024-01-06T01:39:12;100911.31;;;-10.88;100.00
7407;BME280;3745;56.964;24.128;2024-01-06T01:41:39;100794.09;;;-11.53;100.00
7407;BME280;3745;56.964;24.128;2024-01-06T01:44:05;100912.22;;;-10.79;100.00
7407;BME280;3745;56.964;24.128;2024-01-06T01:46:31;100916.19;;;-10.88;100.00
7407;BME280;3745;56.964;24.128;2024-01-06T01:49:01;100893.41;;;-11.04;100.00
7407;BME280;3745;56.964;24.128;2024-01-06T01:51:29;100895.25;;;-11.10;100.00
7407;BME280;3745;56.964;24.128;2024-01-06T01:53:59;100812.75;;;-11.54;100.00
7407;BME280;3745;56.964;24.128;2024-01-06T01:56:26;100921.00;;;-11.05;100.00
7407;BME280;3745;56.964;24.128;2024-01-06T01:58:53;100885.19;;;-11.37;100.00
7407;BME280;3745;56.964;24.128;2024-01-06T02:01:18;100908.34;;;-11.10;100.00
7407;BME280;3745;56.964;24.128;2024-01-06T02:03:44;100942.97;;;-10.81;100.00
7407;BME280;3745;56.964;24.128;2024-01-06T02:06:11;100826.53;;;-11.54;100.00
7407;BME280;3745;56.964;24.128;2024-01-06T02:08:37;100874.09;;;-11.18;100.00
7407;BME280;3745;56.964;24.128;2024-01-06T02:11:04;100915.59;;;-10.94;100.00
7407;BME280;3745;56.964;24.128;2024-01-06T02:13:34;100940.44;;;-10.74;100.00
7407;BME280;3745;56.964;24.128;2024-01-06T02:16:01;100940.13;;;-10.77;100.00
7407;BME280;3745;56.964;24.128;2024-01-06T02:18:27;100881.81;;;-11.22;100.00
7407;BME280;3745;56.964;24.128;2024-01-06T02:20:56;100950.41;;;-10.88;100.00
7407;BME280;3745;56.964;24.128;2024-01-06T02:23:23;100898.81;;;-11.15;100.00
7407;BME280;3745;56.964;24.128;2024-01-06T02:25:48;100799.88;;;-11.69;100.00
7407;BME280;3745;56.964;24.128;2024-01-06T02:28:14;100747.91;;;-12.09;100.00
7407;BME280;3745;56.964;24.128;2024-01-06T02:30:40;100958.88;;;-10.93;100.00
7407;BME280;3745;56.964;24.128;2024-01-06T02:33:05;100956.13;;;-10.96;100.00
7407;BME280;3745;56.964;24.128;2024-01-06T02:35:31;100954.97;;;-10.91;100.00
7407;BME280;3745;56.964;24.128;2024-01-06T02:37:56;100949.78;;;-10.94;100.00
7407;BME280;3745;56.964;24.128;2024-01-06T02:40:22;100965.38;;;-10.85;100.00
7407;BME280;3745;56.964;24.128;2024-01-06T02:42:48;100904.84;;;-11.20;100.00
7407;BME280;3745;56.964;24.128;2024-01-06T02:45:13;100821.75;;;-11.86;100.00
7407;BME280;3745;56.964;24.128;2024-01-06T02:47:39;100966.81;;;-10.87;100.00
7407;BME280;3745;56.964;24.128;2024-01-06T02:50:05;100969.16;;;-10.80;100.00
7407;BME280;3745;56.964;24.128;2024-01-06T02:52:30;100961.94;;;-10.78;100.00
7407;BME280;3745;56.964;24.128;2024-01-06T02:54:56;100946.41;;;-10.79;100.00
7407;BME280;3745;56.964;24.128;2024-01-06T02:57:22;100957.34;;;-10.84;100.00
7407;BME280;3745;56.964;24.128;2024-01-06T02:59:47;100878.00;;;-11.44;100.00
7407;BME280;3745;56.964;24.128;2024-01-06T03:02:14;100924.38;;;-11.20;100.00
7407;BME280;3745;56.964;24.128;2024-01-06T03:04:39;100951.31;;;-11.03;100.00
7407;BME280;3745;56.964;24.128;2024-01-06T03:07:05;100981.84;;;-10.91;100.00
7407;BME280;3745;56.964;24.128;2024-01-06T03:09:31;100983.38;;;-11.00;100.00
7407;BME280;3745;56.964;24.128;2024-01-06T03:11:56;100986.22;;;-11.04;100.00
7407;BME280;3745;56.964;24.128;2024-01-06T03:14:22;100952.03;;;-11.04;100.00
7407;BME280;3745;56.964;24.128;2024-01-06T03:16:48;100981.84;;;-10.91;100.00
7407;BME280;3745;56.964;24.128;2024-01-06T03:19:13;100958.03;;;-11.09;100.00
7407;BME280;3745;56.964;24.128;2024-01-06T03:21:39;100889.19;;;-11.38;100.00
7407;BME280;3745;56.964;24.128;2024-01-06T03:24:06;100977.09;;;-10.98;100.00
7407;BME280;3745;56.964;24.128;2024-01-06T03:26:32;100976.16;;;-11.07;100.00
7407;BME280;3745;56.964;24.128;2024-01-06T03:28:59;100992.19;;;-10.93;100.00
7407;BME280;3745;56.964;24.128;2024-01-06T03:31:25;100986.03;;;-10.90;100.00
7407;BME280;3745;56.964;24.128;2024-01-06T03:33:50;101003.66;;;-10.77;100.00
7407;BME280;3745;56.964;24.128;2024-01-06T03:36:18;101004.28;;;-10.71;100.00
7407;BME280;3745;56.964;24.128;2024-01-06T03:38:44;101009.03;;;-10.88;100.00
7407;BME280;3745;56.964;24.128;2024-01-06T03:41:10;101012.50;;;-10.86;100.00
7407;BME280;3745;56.964;24.128;2024-01-06T03:43:35;101006.50;;;-10.81;100.00
7407;BME280;3745;56.964;24.128;2024-01-06T03:46:01;101014.53;;;-10.82;100.00
7407;BME280;3745;56.964;24.128;2024-01-06T03:48:27;101000.19;;;-10.79;100.00
7407;BME280;3745;56.964;24.128;2024-01-06T03:50:52;100991.84;;;-10.81;100.00
7407;BME280;3745;56.964;24.128;2024-01-06T03:53:18;101007.41;;;-10.72;100.00
7407;BME280;3745;56.964;24.128;2024-01-06T03:55:43;101015.13;;;-10.76;100.00
7407;BME280;3745;56.964;24.128;2024-01-06T03:58:09;100992.97;;;-10.86;100.00
7407;BME280;3745;56.964;24.128;2024-01-06T04:00:34;101019.75;;;-10.70;100.00
7407;BME280;3745;56.964;24.128;2024-01-06T04:03:00;101022.06;;;-10.72;100.00
7407;BME280;3745;56.964;24.128;2024-01-06T04:05:25;100859.47;;;-11.67;100.00
7407;BME280;3745;56.964;24.128;2024-01-06T04:07:51;101043.66;;;-10.68;100.00
7407;BME280;3745;56.964;24.128;2024-01-06T04:10:16;101016.19;;;-10.98;100.00
7407;BME280;3745;56.964;24.128;2024-01-06T04:12:42;101032.75;;;-10.87;100.00
7407;BME280;3745;56.964;24.128;2024-01-06T04:15:08;101024.56;;;-10.87;100.00
7407;BME280;3745;56.964;24.128;2024-01-06T04:17:33;101049.03;;;-10.79;100.00
7407;BME280;3745;56.964;24.128;2024-01-06T04:19:59;101056.50;;;-10.86;100.00
7407;BME280;3745;56.964;24.128;2024-01-06T04:22:25;101052.69;;;-10.91;100.00
7407;BME280;3745;56.964;24.128;2024-01-06T04:24:50;100914.25;;;-11.72;100.00
7407;BME280;3745;56.964;24.128;2024-01-06T04:27:17;101060.56;;;-10.78;100.00
7407;BME280;3745;56.964;24.128;2024-01-06T04:29:42;101062.59;;;-10.74;100.00
7407;BME280;3745;56.964;24.128;2024-01-06T04:32:08;100990.38;;;-11.27;100.00
7407;BME280;3745;56.964;24.128;2024-01-06T04:34:33;101047.81;;;-10.91;100.00
7407;BME280;3745;56.964;24.128;2024-01-06T04:36:59;100995.94;;;-11.13;100.00
7407;BME280;3745;56.964;24.128;2024-01-06T04:39:25;101061.38;;;-10.86;100.00
7407;BME280;3745;56.964;24.128;2024-01-06T04:41:50;100972.13;;;-11.46;100.00
7407;BME280;3745;56.964;24.128;2024-01-06T04:44:17;100978.88;;;-11.28;100.00
7407;BME280;3745;56.964;24.128;2024-01-06T04:46:43;100914.84;;;-11.66;100.00
7407;BME280;3745;56.964;24.128;2024-01-06T04:49:08;100993.63;;;-11.20;100.00
7407;BME280;3745;56.964;24.128;2024-01-06T04:51:34;100990.19;;;-11.13;100.00
7407;BME280;3745;56.964;24.128;2024-01-06T04:53:59;101073.09;;;-10.75;100.00
7407;BME280;3745;56.964;24.128;2024-01-06T04:56:25;101056.41;;;-10.94;100.00
7407;BME280;3745;56.964;24.128;2024-01-06T04:58:50;101078.47;;;-10.86;100.00
7407;BME280;3745;56.964;24.128;2024-01-06T05:01:16;101085.19;;;-10.92;100.00
7407;BME280;3745;56.964;24.128;2024-01-06T05:03:42;101089.25;;;-10.84;100.00
7407;BME280;3745;56.964;24.128;2024-01-06T05:06:07;101090.69;;;-10.86;100.00
7407;BME280;3745;56.964;24.128;2024-01-06T05:08:33;101040.50;;;-11.07;100.00
7407;BME280;3745;56.964;24.128;2024-01-06T05:10:59;101094.41;;;-10.89;100.00
7407;BME280;3745;56.964;24.128;2024-01-06T05:13:25;101100.78;;;-10.83;100.00
7407;BME280;3745;56.964;24.128;2024-01-06T05:15:51;101092.91;;;-10.96;100.00
7407;BME280;3745;56.964;24.128;2024-01-06T05:18:16;100984.53;;;-11.61;100.00
7407;BME280;3745;56.964;24.128;2024-01-06T05:20:42;101075.97;;;-11.10;100.00
7407;BME280;3745;56.964;24.128;2024-01-06T05:23:08;101112.59;;;-11.10;100.00
7407;BME280;3745;56.964;24.128;2024-01-06T05:25:34;101071.00;;;-11.34;100.00
7407;BME280;3745;56.964;24.128;2024-01-06T05:28:00;101118.28;;;-11.18;100.00
7407;BME280;3745;56.964;24.128;2024-01-06T05:30:25;101125.84;;;-11.08;100.00
7407;BME280;3745;56.964;24.128;2024-01-06T05:32:51;101106.38;;;-11.15;100.00
7407;BME280;3745;56.964;24.128;2024-01-06T05:35:17;101016.72;;;-11.72;100.00
7407;BME280;3745;56.964;24.128;2024-01-06T05:37:42;101096.84;;;-11.36;100.00
7407;BME280;3745;56.964;24.128;2024-01-06T05:40:08;101045.69;;;-11.75;100.00
7407;BME280;3745;56.964;24.128;2024-01-06T05:42:34;101138.06;;;-11.24;100.00
7407;BME280;3745;56.964;24.128;2024-01-06T05:45:00;101157.34;;;-11.18;100.00
7407;BME280;3745;56.964;24.128;2024-01-06T05:47:25;100993.41;;;-12.08;100.00
7407;BME280;3745;56.964;24.128;2024-01-06T05:49:51;101108.03;;;-11.38;100.00
7407;BME280;3745;56.964;24.128;2024-01-06T05:52:16;100932.81;;;-12.43;100.00
7407;BME280;3745;56.964;24.128;2024-01-06T05:54:42;101161.22;;;-11.05;100.00
7407;BME280;3745;56.964;24.128;2024-01-06T05:57:08;101034.59;;;-11.80;100.00
7407;BME280;3745;56.964;24.128;2024-01-06T05:59:35;101094.09;;;-11.55;100.00
7407;BME280;3745;56.964;24.128;2024-01-06T06:02:00;101096.91;;;-11.59;100.00
7407;BME280;3745;56.964;24.128;2024-01-06T06:04:26;101173.50;;;-11.12;100.00
7407;BME280;3745;56.964;24.128;2024-01-06T06:06:52;100932.50;;;-12.69;100.00
7407;BME280;3745;56.964;24.128;2024-01-06T06:09:18;101184.16;;;-11.11;100.00
7407;BME280;3745;56.964;24.128;2024-01-06T06:11:46;101186.97;;;-11.15;100.00
7407;BME280;3745;56.964;24.128;2024-01-06T06:14:11;101064.22;;;-11.84;100.00
7407;BME280;3745;56.964;24.128;2024-01-06T06:16:38;101196.69;;;-11.08;100.00
7407;BME280;3745;56.964;24.128;2024-01-06T06:19:04;101166.41;;;-11.33;100.00
7407;BME280;3745;56.964;24.128;2024-01-06T06:21:29;100951.22;;;-12.61;100.00
7407;BME280;3745;56.964;24.128;2024-01-06T06:23:55;101134.88;;;-11.54;100.00
7407;BME280;3745;56.964;24.128;2024-01-06T06:26:21;101181.13;;;-11.24;100.00
7407;BME280;3745;56.964;24.128;2024-01-06T06:28:47;101215.41;;;-11.16;100.00
7407;BME280;3745;56.964;24.128;2024-01-06T06:31:13;101216.75;;;-11.26;100.00
7407;BME280;3745;56.964;24.128;2024-01-06T06:33:38;101220.50;;;-11.21;100.00
7407;BME280;3745;56.964;24.128;2024-01-06T06:36:05;101242.75;;;-11.11;100.00
7407;BME280;3745;56.964;24.128;2024-01-06T06:38:30;101233.09;;;-11.25;100.00
7407;BME280;3745;56.964;24.128;2024-01-06T06:40:56;101244.16;;;-11.13;100.00
7407;BME280;3745;56.964;24.128;2024-01-06T06:43:22;101271.59;;;-11.00;100.00
7407;BME280;3745;56.964;24.128;2024-01-06T06:45:47;101120.75;;;-11.88;100.00
7407;BME280;3745;56.964;24.128;2024-01-06T06:48:13;101209.47;;;-11.33;100.00
7407;BME280;3745;56.964;24.128;2024-01-06T06:50:38;101273.13;;;-11.16;100.00
7407;BME280;3745;56.964;24.128;2024-01-06T06:53:06;101280.78;;;-11.13;100.00
7407;BME280;3745;56.964;24.128;2024-01-06T06:55:32;101227.56;;;-11.31;100.00
7407;BME280;3745;56.964;24.128;2024-01-06T06:57:57;101279.25;;;-10.97;100.00
7407;BME280;3745;56.964;24.128;2024-01-06T07:00:23;101244.25;;;-11.20;100.00
7407;BME280;3745;56.964;24.128;2024-01-06T07:02:48;101218.25;;;-11.42;100.00
7407;BME280;3745;56.964;24.128;2024-01-06T07:05:14;101151.06;;;-11.93;100.00
7407;BME280;3745;56.964;24.128;2024-01-06T07:07:40;101279.44;;;-11.18;100.00
7407;BME280;3745;56.964;24.128;2024-01-06T07:10:06;101294.09;;;-11.18;100.00
7407;BME280;3745;56.964;24.128;2024-01-06T07:12:32;101303.41;;;-11.07;100.00
7407;BME280;3745;56.964;24.128;2024-01-06T07:14:57;101309.75;;;-11.16;100.00
7407;BME280;3745;56.964;24.128;2024-01-06T07:17:24;101270.53;;;-11.40;100.00
7407;BME280;3745;56.964;24.128;2024-01-06T07:19:50;101303.63;;;-11.13;100.00
7407;BME280;3745;56.964;24.128;2024-01-06T07:22:16;101301.13;;;-11.28;100.00
7407;BME280;3745;56.964;24.128;2024-01-06T07:24:44;101260.22;;;-11.53;100.00
7407;BME280;3745;56.964;24.128;2024-01-06T07:27:10;101327.63;;;-11.24;100.00
7407;BME280;3745;56.964;24.128;2024-01-06T07:29:36;101336.94;;;-11.13;100.00
7407;BME280;3745;56.964;24.128;2024-01-06T07:32:03;101288.03;;;-11.44;100.00
7407;BME280;3745;56.964;24.128;2024-01-06T07:34:28;101332.19;;;-11.27;100.00
7407;BME280;3745;56.964;24.128;2024-01-06T07:36:54;101346.16;;;-11.26;100.00
7407;BME280;3745;56.964;24.128;2024-01-06T07:39:20;101329.53;;;-11.44;100.00
7407;BME280;3745;56.964;24.128;2024-01-06T07:41:45;101254.81;;;-11.81;100.00
7407;BME280;3745;56.964;24.128;2024-01-06T07:44:12;101356.59;;;-11.27;100.00
7407;BME280;3745;56.964;24.128;2024-01-06T07:46:41;101350.84;;;-11.50;100.00
7407;BME280;3745;56.964;24.128;2024-01-06T07:49:06;101367.13;;;-11.35;100.00
7407;BME280;3745;56.964;24.128;2024-01-06T07:51:32;101380.38;;;-11.33;100.00
7407;BME280;3745;56.964;24.128;2024-01-06T07:54:00;101349.88;;;-11.67;100.00
7407;BME280;3745;56.964;24.128;2024-01-06T07:56:26;101340.19;;;-11.74;100.00
7407;BME280;3745;56.964;24.128;2024-01-06T07:58:52;101386.84;;;-11.41;100.00
7407;BME280;3745;56.964;24.128;2024-01-06T08:01:18;101371.19;;;-11.50;100.00
7407;BME280;3745;56.964;24.128;2024-01-06T08:03:43;101148.84;;;-12.88;100.00
7407;BME280;3745;56.964;24.128;2024-01-06T08:06:09;101375.25;;;-11.50;100.00
7407;BME280;3745;56.964;24.128;2024-01-06T08:08:35;101407.09;;;-11.42;100.00
7407;BME280;3745;56.964;24.128;2024-01-06T08:11:01;101377.72;;;-11.58;100.00
7407;BME280;3745;56.964;24.128;2024-01-06T08:13:27;101381.59;;;-11.67;100.00
7407;BME280;3745;56.964;24.128;2024-01-06T08:15:52;101347.53;;;-11.81;100.00
7407;BME280;3745;56.964;24.128;2024-01-06T08:18:18;101368.28;;;-11.54;100.00
7407;BME280;3745;56.964;24.128;2024-01-06T08:20:43;101427.16;;;-11.15;100.00
7407;BME280;3745;56.964;24.128;2024-01-06T08:23:09;101420.66;;;-11.07;100.00
7407;BME280;3745;56.964;24.128;2024-01-06T08:25:36;101423.06;;;-11.00;100.00
7407;BME280;3745;56.964;24.128;2024-01-06T08:28:02;101432.50;;;-11.03;100.00
7407;BME280;3745;56.964;24.128;2024-01-06T08:30:27;101403.69;;;-11.28;100.00
7407;BME280;3745;56.964;24.128;2024-01-06T08:32:54;101434.91;;;-10.96;100.00
7407;BME280;3745;56.964;24.128;2024-01-06T08:35:19;101461.31;;;-10.78;100.00
7407;BME280;3745;56.964;24.128;2024-01-06T08:37:45;101379.75;;;-11.17;100.00
7407;BME280;3745;56.964;24.128;2024-01-06T08:40:11;101387.66;;;-11.04;100.00
7407;BME280;3745;56.964;24.128;2024-01-06T08:42:37;101460.53;;;-10.47;100.00
7407;BME280;3745;56.964;24.128;2024-01-06T08:45:04;101468.16;;;-10.37;100.00
7407;BME280;3745;56.964;24.128;2024-01-06T08:47:30;101278.41;;;-11.43;100.00
7407;BME280;3745;56.964;24.128;2024-01-06T08:49:56;101465.84;;;-10.35;100.00
7407;BME280;3745;56.964;24.128;2024-01-06T08:52:22;101470.41;;;-10.38;100.00
7407;BME280;3745;56.964;24.128;2024-01-06T08:54:47;101432.31;;;-10.75;100.00
7407;BME280;3745;56.964;24.128;2024-01-06T08:57:15;101472.81;;;-10.77;100.00
7407;BME280;3745;56.964;24.128;2024-01-06T08:59:40;101481.13;;;-10.97;100.00
7407;BME280;3745;56.964;24.128;2024-01-06T09:02:06;101433.75;;;-11.36;100.00
7407;BME280;3745;56.964;24.128;2024-01-06T09:04:31;101253.78;;;-12.49;100.00
7407;BME280;3745;56.964;24.128;2024-01-06T09:06:57;101465.78;;;-11.26;100.00
7407;BME280;3745;56.964;24.128;2024-01-06T09:09:22;101452.97;;;-11.46;100.00
7407;BME280;3745;56.964;24.128;2024-01-06T09:11:49;101295.16;;;-12.42;100.00
7407;BME280;3745;56.964;24.128;2024-01-06T09:14:18;101275.91;;;-12.55;100.00
7407;BME280;3745;56.964;24.128;2024-01-06T09:16:44;101441.22;;;-11.72;100.00
7407;BME280;3745;56.964;24.128;2024-01-06T09:19:10;101476.00;;;-11.51;100.00
7407;BME280;3745;56.964;24.128;2024-01-06T09:21:36;101373.28;;;-12.20;100.00
7407;BME280;3745;56.964;24.128;2024-01-06T09:24:02;101462.34;;;-11.72;100.00
7407;BME280;3745;56.964;24.128;2024-01-06T09:26:35;101492.75;;;-11.47;100.00
7407;BME280;3745;56.964;24.128;2024-01-06T09:29:01;101462.16;;;-11.74;100.00
7407;BME280;3745;56.964;24.128;2024-01-06T09:31:27;101502.13;;;-11.43;100.00
7407;BME280;3745;56.964;24.128;2024-01-06T09:33:53;101484.06;;;-11.67;100.00
7407;BME280;3745;56.964;24.128;2024-01-06T09:36:19;101306.91;;;-12.75;100.00
7407;BME280;3745;56.964;24.128;2024-01-06T09:38:45;101513.63;;;-11.42;100.00
7407;BME280;3745;56.964;24.128;2024-01-06T09:41:10;101480.41;;;-11.63;100.00
7407;BME280;3745;56.964;24.128;2024-01-06T09:43:36;101530.72;;;-11.35;100.00
7407;BME280;3745;56.964;24.128;2024-01-06T09:46:21;101472.56;;;-11.68;100.00
7407;BME280;3745;56.964;24.128;2024-01-06T09:48:51;101505.63;;;-11.48;100.00
7407;BME280;3745;56.964;24.128;2024-01-06T09:51:19;101535.59;;;-11.35;100.00
7407;BME280;3745;56.964;24.128;2024-01-06T09:53:52;101540.75;;;-11.25;100.00
7407;BME280;3745;56.964;24.128;2024-01-06T09:56:18;101424.91;;;-11.87;100.00
7407;BME280;3745;56.964;24.128;2024-01-06T09:58:44;101526.31;;;-11.31;100.00
7407;BME280;3745;56.964;24.128;2024-01-06T10:01:11;101561.16;;;-11.18;100.00
7407;BME280;3745;56.964;24.128;2024-01-06T10:03:37;101540.75;;;-11.25;100.00
7407;BME280;3745;56.964;24.128;2024-01-06T10:06:03;101479.00;;;-11.61;100.00
7407;BME280;3745;56.964;24.128;2024-01-06T10:08:30;101410.81;;;-11.89;100.00
7407;BME280;3745;56.964;24.128;2024-01-06T10:11:02;101574.09;;;-11.26;100.00
7407;BME280;3745;56.964;24.128;2024-01-06T10:13:28;101518.91;;;-11.61;100.00
7407;BME280;3745;56.964;24.128;2024-01-06T10:15:54;101587.88;;;-11.26;100.00
7407;BME280;3745;56.964;24.128;2024-01-06T10:18:20;101544.00;;;-11.69;100.00
7407;BME280;3745;56.964;24.128;2024-01-06T10:20:47;101590.72;;;-11.44;100.00
7407;BME280;3745;56.964;24.128;2024-01-06T10:23:13;101599.25;;;-11.62;100.00
7407;BME280;3745;56.964;24.128;2024-01-06T10:25:38;101601.91;;;-11.75;100.00
7407;BME280;3745;56.964;24.128;2024-01-06T10:28:05;101568.81;;;-11.80;100.00
7407;BME280;3745;56.964;24.128;2024-01-06T10:30:31;101535.06;;;-11.91;100.00
7407;BME280;3745;56.964;24.128;2024-01-06T10:32:56;101315.16;;;-13.31;100.00
7407;BME280;3745;56.964;24.128;2024-01-06T10:35:25;101605.72;;;-11.56;100.00
7407;BME280;3745;56.964;24.128;2024-01-06T10:37:51;101594.38;;;-11.48;100.00
7407;BME280;3745;56.964;24.128;2024-01-06T10:40:17;101576.41;;;-11.56;100.00
7407;BME280;3745;56.964;24.128;2024-01-06T10:42:45;101514.81;;;-11.83;100.00
7407;BME280;3745;56.964;24.128;2024-01-06T10:45:13;101585.16;;;-11.50;100.00
7407;BME280;3745;56.964;24.128;2024-01-06T10:47:41;101558.34;;;-11.72;100.00
7407;BME280;3745;56.964;24.128;2024-01-06T10:50:08;101603.97;;;-11.49;100.00
7407;BME280;3745;56.964;24.128;2024-01-06T10:52:34;101560.44;;;-11.75;100.00
7407;BME280;3745;56.964;24.128;2024-01-06T10:55:02;101576.06;;;-11.59;100.00
7407;BME280;3745;56.964;24.128;2024-01-06T10:57:29;101569.88;;;-11.71;100.00
7407;BME280;3745;56.964;24.128;2024-01-06T10:59:58;101496.06;;;-12.12;100.00
7407;BME280;3745;56.964;24.128;2024-01-06T11:02:25;101610.25;;;-11.44;100.00
7407;BME280;3745;56.964;24.128;2024-01-06T11:04:51;101516.59;;;-12.17;100.00
7407;BME280;3745;56.964;24.128;2024-01-06T11:07:20;101629.78;;;-11.59;100.00
7407;BME280;3745;56.964;24.128;2024-01-06T11:12:34;101585.16;;;-11.65;100.00
7407;BME280;3745;56.964;24.128;2024-01-06T11:15:00;101632.88;;;-11.31;100.00
7407;BME280;3745;56.964;24.128;2024-01-06T11:17:51;101637.41;;;-11.27;100.00
7407;BME280;3745;56.964;24.128;2024-01-06T11:20:35;101638.09;;;-11.28;100.00
7407;BME280;3745;56.964;24.128;2024-01-06T11:23:18;101647.16;;;-11.20;100.00
7407;BME280;3745;56.964;24.128;2024-01-06T11:25:46;101647.16;;;-11.20;100.00
7407;BME280;3745;56.964;24.128;2024-01-06T11:28:12;101514.13;;;-11.89;100.00
7407;BME280;3745;56.964;24.128;2024-01-06T11:30:39;101649.59;;;-11.20;100.00
7407;BME280;3745;56.964;24.128;2024-01-06T11:33:05;101605.91;;;-11.54;100.00
7407;BME280;3745;56.964;24.128;2024-01-06T11:35:31;101613.72;;;-11.42;100.00
7407;BME280;3745;56.964;24.128;2024-01-06T11:38:00;101657.97;;;-11.11;100.00
7407;BME280;3745;56.964;24.128;2024-01-06T11:40:36;101660.03;;;-11.07;100.00
7407;BME280;3745;56.964;24.128;2024-01-06T11:45:31;101637.06;;;-11.23;100.00
7407;BME280;3745;56.964;24.128;2024-01-06T11:48:02;101667.72;;;-11.11;100.00
7407;BME280;3745;56.964;24.128;2024-01-06T11:50:36;101612.69;;;-11.51;100.00
7407;BME280;3745;56.964;24.128;2024-01-06T11:53:03;101663.91;;;-11.30;100.00
7407;BME280;3745;56.964;24.128;2024-01-06T11:55:29;101667.41;;;-11.42;100.00
7407;BME280;3745;56.964;24.128;2024-01-06T11:57:58;101678.59;;;-11.44;100.00
7407;BME280;3745;56.964;24.128;2024-01-06T12:00:30;101680.66;;;-11.40;100.00
7407;BME280;3745;56.964;24.128;2024-01-06T12:02:59;101674.06;;;-11.41;100.00
7407;BME280;3745;56.964;24.128;2024-01-06T12:05:26;101685.72;;;-11.46;100.00
7407;BME280;3745;56.964;24.128;2024-01-06T12:07:57;101683.47;;;-11.44;100.00
7407;BME280;3745;56.964;24.128;2024-01-06T12:10:24;101648.25;;;-11.68;100.00
7407;BME280;3745;56.964;24.128;2024-01-06T12:13:03;101687.66;;;-11.36;100.00
7407;BME280;3745;56.964;24.128;2024-01-06T12:15:33;101668.47;;;-11.54;100.00
7407;BME280;3745;56.964;24.128;2024-01-06T12:18:03;101710.66;;;-11.48;100.00
7407;BME280;3745;56.964;24.128;2024-01-06T12:20:28;101703.69;;;-11.52;100.00
7407;BME280;3745;56.964;24.128;2024-01-06T12:23:00;101718.34;;;-11.60;100.00
7407;BME280;3745;56.964;24.128;2024-01-06T12:25:27;101714.84;;;-11.54;100.00
7407;BME280;3745;56.964;24.128;2024-01-06T12:27:54;101720.78;;;-11.60;100.00
7407;BME280;3745;56.964;24.128;2024-01-06T12:30:21;101611.16;;;-12.29;100.00
7407;BME280;3745;56.964;24.128;2024-01-06T12:32:48;101611.97;;;-12.42;100.00
7407;BME280;3745;56.964;24.128;2024-01-06T12:35:16;101735.78;;;-11.71;100.00
7407;BME280;3745;56.964;24.128;2024-01-06T12:37:42;101729.16;;;-11.72;100.00
7407;BME280;3745;56.964;24.128;2024-01-06T12:40:11;101737.19;;;-11.73;100.00
7407;BME280;3745;56.964;24.128;2024-01-06T12:42:38;101734.38;;;-11.62;100.00